createdAt,value
2022-09-09T00:00:41.547Z,12.68
2022-09-09T00:01:41.531Z,12.67
2022-09-09T00:02:41.718Z,12.71
2022-09-09T00:03:41.704Z,12.68
2022-09-09T00:04:41.496Z,12.71
2022-09-09T00:05:41.514Z,12.67
2022-09-09T00:06:41.476Z,12.72
2022-09-09T00:07:41.470Z,12.75
2022-09-09T00:08:41.503Z,12.74
2022-09-09T00:09:41.440Z,12.70
2022-09-09T00:10:41.540Z,12.74
2022-09-09T00:11:41.447Z,12.79
2022-09-09T00:12:41.415Z,12.79
2022-09-09T00:13:41.410Z,12.77
2022-09-09T00:14:41.417Z,12.75
2022-09-09T00:15:41.433Z,12.85
2022-09-09T00:16:41.372Z,12.77
2022-09-09T00:17:41.388Z,12.77
2022-09-09T00:18:49.435Z,12.68
2022-09-09T00:19:41.358Z,12.74
2022-09-09T00:20:41.315Z,12.64
2022-09-09T00:21:41.371Z,12.72
2022-09-09T00:22:41.291Z,12.72
2022-09-09T00:23:41.326Z,12.67
2022-09-09T00:24:41.300Z,12.67
2022-09-09T00:25:41.278Z,12.68
2022-09-09T00:26:41.251Z,12.67
2022-09-09T00:27:41.258Z,12.62
2022-09-09T00:28:41.228Z,12.64
2022-09-09T00:29:41.231Z,12.64
2022-09-09T00:30:41.267Z,12.64
2022-09-09T00:31:41.230Z,12.67
2022-09-09T00:32:41.189Z,12.68
2022-09-09T00:33:41.201Z,12.64
2022-09-09T00:34:41.204Z,12.53
2022-09-09T00:35:41.168Z,12.62
2022-09-09T00:36:41.163Z,12.57
2022-09-09T00:37:41.148Z,12.64
2022-09-09T00:38:41.129Z,12.52
2022-09-09T00:39:41.221Z,12.50
2022-09-09T00:40:41.142Z,12.56
2022-09-09T00:41:41.093Z,12.53
2022-09-09T00:42:41.089Z,12.45
2022-09-09T00:43:41.060Z,12.49
2022-09-09T00:44:41.061Z,12.49
2022-09-09T00:45:41.166Z,12.37
2022-09-09T00:46:41.043Z,12.49
2022-09-09T00:47:41.040Z,12.52
2022-09-09T00:48:41.049Z,12.42
2022-09-09T00:49:41.000Z,12.38
2022-09-09T00:50:41.006Z,12.37
2022-09-09T00:51:41.005Z,12.38
2022-09-09T00:52:40.970Z,12.29
2022-09-09T00:53:40.976Z,12.32
2022-09-09T00:54:40.947Z,12.32
2022-09-09T00:55:40.937Z,12.29
2022-09-09T00:56:40.944Z,12.31
2022-09-09T00:57:40.914Z,12.24
2022-09-09T00:58:40.950Z,12.24
2022-09-09T00:59:40.960Z,12.28
2022-09-09T01:00:40.871Z,12.28
2022-09-09T01:01:40.970Z,12.24
2022-09-09T01:02:40.907Z,12.24
2022-09-09T01:03:40.852Z,12.29
2022-09-09T01:04:40.833Z,12.28
2022-09-09T01:05:40.859Z,12.27
2022-09-09T01:06:40.808Z,12.28
2022-09-09T01:07:40.815Z,12.34
2022-09-09T01:08:40.780Z,12.28
2022-09-09T01:09:40.809Z,12.32
2022-09-09T01:10:40.783Z,12.29
2022-09-09T01:11:40.799Z,12.27
2022-09-09T01:12:40.751Z,12.20
2022-09-09T01:13:40.750Z,12.16
2022-09-09T01:14:40.723Z,12.20
2022-09-09T01:15:40.717Z,12.21
2022-09-09T01:16:40.811Z,12.20
2022-09-09T01:17:40.728Z,12.17
2022-09-09T01:18:40.678Z,12.20
2022-09-09T01:19:40.660Z,12.21
2022-09-09T01:20:40.667Z,12.21
2022-09-09T01:21:40.639Z,12.28
2022-09-09T01:22:40.665Z,12.20
2022-09-09T01:23:40.618Z,12.20
2022-09-09T01:24:40.614Z,12.21
2022-09-09T01:25:40.608Z,12.31
2022-09-09T01:26:40.645Z,12.29
2022-09-09T01:27:40.610Z,12.27
2022-09-09T01:28:40.603Z,12.23
2022-09-09T01:29:40.565Z,12.23
2022-09-09T01:30:40.615Z,12.19
2022-09-09T01:31:40.564Z,12.23
2022-09-09T01:32:40.516Z,12.24
2022-09-09T01:33:40.541Z,12.20
2022-09-09T01:34:40.496Z,12.24
2022-09-09T01:35:40.514Z,12.20
2022-09-09T01:36:40.500Z,12.27
2022-09-09T01:37:40.469Z,12.21
2022-09-09T01:38:40.465Z,12.27
2022-09-09T01:39:40.594Z,12.24
2022-09-09T01:40:40.429Z,12.29
2022-09-09T01:41:40.453Z,12.21
2022-09-09T01:42:40.431Z,12.32
2022-09-09T01:43:40.411Z,12.24
2022-09-09T01:44:40.406Z,12.31
2022-09-09T01:45:40.462Z,12.34
2022-09-09T01:46:40.368Z,12.31
2022-09-09T01:47:40.467Z,12.28
2022-09-09T01:48:40.342Z,12.29
2022-09-09T01:49:40.325Z,12.29
2022-09-09T01:50:40.329Z,12.29
2022-09-09T01:51:40.305Z,12.24
2022-09-09T01:52:40.306Z,12.29
2022-09-09T01:53:40.305Z,12.32
2022-09-09T01:54:40.271Z,12.32
2022-09-09T01:55:40.277Z,12.32
2022-09-09T01:56:40.271Z,12.29
2022-09-09T01:57:40.301Z,12.29
2022-09-09T01:58:40.233Z,12.31
2022-09-09T01:59:40.213Z,12.21
2022-09-09T02:00:40.210Z,12.24
2022-09-09T02:01:40.281Z,12.21
2022-09-09T02:02:40.295Z,12.27
2022-09-09T02:03:40.179Z,12.21
2022-09-09T02:04:40.185Z,12.24
2022-09-09T02:05:40.152Z,12.28
2022-09-09T02:06:40.137Z,12.27
2022-09-09T02:07:40.152Z,12.32
2022-09-09T02:08:40.152Z,12.24
2022-09-09T02:09:40.180Z,12.29
2022-09-09T02:10:40.114Z,12.31
2022-09-09T02:11:40.090Z,12.29
2022-09-09T02:12:40.087Z,12.28
2022-09-09T02:13:40.115Z,12.29
2022-09-09T02:14:40.108Z,12.24
2022-09-09T02:15:40.046Z,12.32
2022-09-09T02:16:40.111Z,12.29
2022-09-09T02:17:40.021Z,12.38
2022-09-09T02:18:40.037Z,12.29
2022-09-09T02:19:40.020Z,12.37
2022-09-09T02:20:39.988Z,12.35
2022-09-09T02:21:39.987Z,12.39
2022-09-09T02:22:39.957Z,12.38
2022-09-09T02:23:39.958Z,12.39
2022-09-09T02:24:40.264Z,12.41
2022-09-09T02:25:39.984Z,12.47
2022-09-09T02:26:39.926Z,12.39
2022-09-09T02:27:39.934Z,12.42
2022-09-09T02:28:39.896Z,12.45
2022-09-09T02:29:39.901Z,12.37
2022-09-09T02:30:39.953Z,12.39
2022-09-09T02:31:39.857Z,12.39
2022-09-09T02:32:39.881Z,12.35
2022-09-09T02:33:39.861Z,12.35
2022-09-09T02:34:39.829Z,12.42
2022-09-09T02:35:39.837Z,12.34
2022-09-09T02:36:39.813Z,12.41
2022-09-09T02:37:39.796Z,12.38
2022-09-09T02:38:39.795Z,12.42
2022-09-09T02:39:39.832Z,12.31
2022-09-09T02:40:39.818Z,12.42
2022-09-09T02:41:39.744Z,12.32
2022-09-09T02:42:39.733Z,12.39
2022-09-09T02:43:39.735Z,12.37
2022-09-09T02:44:39.742Z,12.39
2022-09-09T02:45:39.767Z,12.32
2022-09-09T02:46:39.700Z,12.27
2022-09-09T02:47:39.694Z,12.29
2022-09-09T02:48:39.667Z,12.31
2022-09-09T02:49:39.667Z,12.34
2022-09-09T02:50:39.649Z,12.28
2022-09-09T02:51:39.651Z,12.23
2022-09-09T02:52:39.649Z,12.29
2022-09-09T02:53:39.643Z,12.24
2022-09-09T02:54:39.608Z,12.29
2022-09-09T02:55:39.617Z,12.24
2022-09-09T02:56:39.587Z,12.28
2022-09-09T02:57:39.567Z,12.34
2022-09-09T02:58:39.573Z,12.31
2022-09-09T02:59:39.572Z,12.31
2022-09-09T03:00:39.546Z,12.27
2022-09-09T03:01:39.638Z,12.34
2022-09-09T03:02:39.605Z,12.31
2022-09-09T03:03:39.520Z,12.23
2022-09-09T03:04:39.495Z,12.29
2022-09-09T03:05:39.482Z,12.31
2022-09-09T03:06:39.511Z,12.24
2022-09-09T03:07:39.455Z,12.27
2022-09-09T03:08:39.453Z,12.28
2022-09-09T03:09:39.460Z,12.17
2022-09-09T03:10:39.465Z,12.19
2022-09-09T03:11:39.446Z,12.21
2022-09-09T03:12:39.426Z,12.24
2022-09-09T03:13:39.395Z,12.16
2022-09-09T03:14:39.388Z,12.16
2022-09-09T03:15:39.391Z,12.16
2022-09-09T03:16:39.460Z,12.05
2022-09-09T03:17:39.374Z,12.02
2022-09-09T03:18:39.351Z,12.09
2022-09-09T03:19:39.361Z,12.07
2022-09-09T03:20:39.342Z,12.01
2022-09-09T03:21:39.319Z,12.09
2022-09-09T03:22:39.291Z,12.07
2022-09-09T03:23:39.294Z,12.04
2022-09-09T03:24:39.274Z,12.02
2022-09-09T03:25:39.272Z,11.98
2022-09-09T03:26:39.271Z,12.14
2022-09-09T03:27:39.251Z,12.20
2022-09-09T03:28:39.249Z,12.07
2022-09-09T03:29:39.222Z,12.12
2022-09-09T03:30:39.231Z,12.20
2022-09-09T03:31:39.281Z,12.10
2022-09-09T03:32:39.207Z,12.17
2022-09-09T03:33:39.199Z,12.14
2022-09-09T03:34:39.199Z,12.12
2022-09-09T03:35:39.158Z,12.17
2022-09-09T03:36:39.138Z,12.17
2022-09-09T03:37:39.130Z,12.27
2022-09-09T03:38:39.113Z,12.29
2022-09-09T03:39:39.186Z,12.20
2022-09-09T03:40:39.105Z,12.29
2022-09-09T03:41:39.104Z,12.29
2022-09-09T03:42:39.117Z,12.32
2022-09-09T03:43:39.069Z,12.29
2022-09-09T03:44:39.053Z,12.39
2022-09-09T03:45:39.073Z,12.41
2022-09-09T03:46:39.047Z,12.45
2022-09-09T03:47:39.048Z,12.39
2022-09-09T03:48:39.025Z,12.32
2022-09-09T03:49:39.028Z,12.39
2022-09-09T03:50:38.995Z,12.42
2022-09-09T03:51:38.975Z,12.41
2022-09-09T03:52:38.981Z,12.52
2022-09-09T03:53:38.955Z,12.50
2022-09-09T03:54:38.988Z,12.34
2022-09-09T03:55:38.921Z,12.50
2022-09-09T03:56:38.917Z,12.56
2022-09-09T03:57:38.918Z,12.47
2022-09-09T03:58:38.920Z,12.52
2022-09-09T03:59:38.913Z,12.47
2022-09-09T04:00:38.929Z,12.57
2022-09-09T04:01:39.079Z,12.59
2022-09-09T04:02:39.073Z,12.53
2022-09-09T04:03:38.839Z,12.59
2022-09-09T04:04:38.826Z,12.56
2022-09-09T04:05:38.834Z,12.60
2022-09-09T04:06:38.823Z,12.49
2022-09-09T04:07:38.805Z,12.56
2022-09-09T04:08:38.814Z,12.52
2022-09-09T04:09:38.778Z,12.57
2022-09-09T04:10:38.762Z,12.53
2022-09-09T04:11:38.778Z,12.54
2022-09-09T04:12:38.736Z,12.59
2022-09-09T04:13:38.744Z,12.53
2022-09-09T04:14:38.726Z,12.65
2022-09-09T04:15:38.721Z,12.64
2022-09-09T04:16:38.814Z,12.60
2022-09-09T04:17:38.690Z,12.56
2022-09-09T04:18:38.715Z,12.60
2022-09-09T04:19:38.677Z,12.57
2022-09-09T04:20:38.661Z,12.59
2022-09-09T04:21:38.662Z,12.57
2022-09-09T04:22:38.640Z,12.54
2022-09-09T04:23:38.615Z,12.57
2022-09-09T04:24:38.690Z,12.52
2022-09-09T04:25:38.594Z,12.60
2022-09-09T04:26:38.610Z,12.54
2022-09-09T04:27:38.572Z,12.41
2022-09-09T04:28:38.876Z,12.46
2022-09-09T04:29:38.562Z,12.46
2022-09-09T04:30:38.552Z,12.45
2022-09-09T04:31:38.594Z,12.49
2022-09-09T04:32:38.531Z,12.49
2022-09-09T04:33:40.520Z,12.50
2022-09-09T04:34:38.516Z,12.47
2022-09-09T04:35:38.486Z,12.47
2022-09-09T04:36:38.471Z,12.53
2022-09-09T04:37:38.490Z,12.49
2022-09-09T04:38:38.643Z,12.42
2022-09-09T04:39:38.524Z,12.60
2022-09-09T04:40:38.442Z,12.60
2022-09-09T04:41:38.420Z,12.50
2022-09-09T04:42:38.498Z,12.54
2022-09-09T04:43:38.401Z,12.62
2022-09-09T04:44:38.411Z,12.68
2022-09-09T04:45:38.420Z,12.64
2022-09-09T04:46:38.358Z,12.67
2022-09-09T04:47:38.425Z,12.67
2022-09-09T04:48:38.529Z,12.68
2022-09-09T04:49:38.341Z,12.59
2022-09-09T04:50:38.325Z,12.62
2022-09-09T04:51:38.325Z,12.65
2022-09-09T04:52:38.328Z,12.62
2022-09-09T04:53:38.320Z,12.64
2022-09-09T04:54:38.288Z,12.67
2022-09-09T04:55:38.289Z,12.62
2022-09-09T04:56:38.289Z,12.60
2022-09-09T04:57:38.269Z,12.65
2022-09-09T04:58:38.228Z,12.65
2022-09-09T04:59:38.215Z,12.62
2022-09-09T05:00:38.278Z,12.68
2022-09-09T05:01:38.197Z,12.65
2022-09-09T05:02:38.236Z,12.54
2022-09-09T05:03:38.175Z,12.62
2022-09-09T05:04:38.184Z,12.65
2022-09-09T05:05:38.177Z,12.64
2022-09-09T05:06:38.151Z,12.67
2022-09-09T05:07:38.137Z,12.60
2022-09-09T05:08:38.144Z,12.64
2022-09-09T05:09:38.118Z,12.62
2022-09-09T05:10:38.094Z,12.65
2022-09-09T05:11:38.119Z,12.64
2022-09-09T05:12:38.083Z,12.62
2022-09-09T05:13:41.322Z,12.68
2022-09-09T05:14:38.065Z,12.71
2022-09-09T05:15:38.038Z,12.72
2022-09-09T05:16:38.065Z,12.74
2022-09-09T05:17:38.031Z,12.75
2022-09-09T05:18:38.073Z,12.77
2022-09-09T05:19:38.006Z,12.82
2022-09-09T05:20:38.002Z,12.83
2022-09-09T05:21:37.976Z,12.78
2022-09-09T05:22:38.012Z,12.83
2022-09-09T05:23:37.956Z,12.85
2022-09-09T05:24:37.963Z,12.83
2022-09-09T05:25:37.949Z,12.87
2022-09-09T05:26:37.915Z,12.79
2022-09-09T05:27:37.926Z,12.83
2022-09-09T05:28:37.969Z,12.89
2022-09-09T05:29:37.895Z,12.85
2022-09-09T05:30:37.876Z,12.78
2022-09-09T05:31:37.962Z,12.83
2022-09-09T05:32:37.896Z,12.85
2022-09-09T05:33:37.837Z,12.86
2022-09-09T05:34:37.844Z,12.83
2022-09-09T05:35:37.848Z,12.87
2022-09-09T05:36:37.847Z,12.87
2022-09-09T05:37:37.862Z,12.87
2022-09-09T05:38:37.782Z,12.92
2022-09-09T05:39:37.916Z,12.89
2022-09-09T05:40:37.781Z,12.96
2022-09-09T05:41:37.791Z,13.00
2022-09-09T05:42:37.783Z,13.11
2022-09-09T05:43:37.791Z,13.14
2022-09-09T05:44:37.771Z,13.05
2022-09-09T05:45:37.710Z,13.19
2022-09-09T05:46:37.775Z,13.17
2022-09-09T05:47:37.726Z,13.33
2022-09-09T05:48:37.834Z,13.30
2022-09-09T05:49:37.701Z,13.33
2022-09-09T05:50:37.663Z,13.38
2022-09-09T05:51:37.672Z,13.44
2022-09-09T05:52:37.645Z,13.49
2022-09-09T05:53:37.621Z,13.52
2022-09-09T05:54:37.661Z,13.59
2022-09-09T05:55:37.597Z,13.63
2022-09-09T05:56:37.607Z,13.66
2022-09-09T05:57:37.685Z,13.71
2022-09-09T05:58:37.783Z,13.70
2022-09-09T05:59:37.588Z,13.84
2022-09-09T06:00:37.538Z,13.82
2022-09-09T06:01:37.726Z,13.84
2022-09-09T06:02:37.814Z,13.92
2022-09-09T06:03:37.550Z,13.91
2022-09-09T06:04:37.534Z,13.89
2022-09-09T06:05:37.495Z,13.97
2022-09-09T06:06:37.603Z,14.07
2022-09-09T06:07:37.476Z,14.12
2022-09-09T06:08:37.634Z,14.20
2022-09-09T06:09:37.469Z,14.18
2022-09-09T06:10:37.460Z,14.12
2022-09-09T06:11:37.430Z,14.22
2022-09-09T06:12:37.406Z,14.27
2022-09-09T06:13:37.411Z,14.21
2022-09-09T06:14:37.423Z,14.33
2022-09-09T06:15:37.399Z,14.36
2022-09-09T06:16:37.449Z,14.40
2022-09-09T06:17:37.351Z,14.32
2022-09-09T06:18:37.438Z,14.46
2022-09-09T06:19:37.330Z,14.47
2022-09-09T06:20:37.336Z,14.51
2022-09-09T06:21:37.355Z,14.46
2022-09-09T06:22:37.305Z,14.51
2022-09-09T06:23:37.283Z,14.57
2022-09-09T06:24:37.308Z,14.58
2022-09-09T06:25:37.269Z,14.64
2022-09-09T06:26:37.267Z,14.47
2022-09-09T06:27:37.285Z,14.55
2022-09-09T06:28:37.291Z,14.69
2022-09-09T06:29:37.235Z,14.64
2022-09-09T06:30:37.208Z,14.68
2022-09-09T06:31:37.285Z,14.68
2022-09-09T06:32:37.213Z,14.75
2022-09-09T06:33:37.178Z,14.73
2022-09-09T06:34:37.160Z,14.75
2022-09-09T06:35:37.160Z,14.77
2022-09-09T06:36:37.141Z,14.72
2022-09-09T06:37:37.152Z,14.72
2022-09-09T06:38:37.239Z,14.70
2022-09-09T06:39:37.195Z,14.73
2022-09-09T06:40:37.096Z,14.75
2022-09-09T06:41:37.097Z,14.68
2022-09-09T06:42:37.104Z,14.78
2022-09-09T06:43:37.073Z,14.80
2022-09-09T06:44:37.078Z,14.75
2022-09-09T06:45:37.094Z,14.78
2022-09-09T06:46:37.075Z,14.73
2022-09-09T06:47:37.048Z,14.75
2022-09-09T06:48:37.154Z,14.69
2022-09-09T06:49:37.013Z,14.73
2022-09-09T06:50:37.025Z,14.69
2022-09-09T06:51:37.003Z,14.72
2022-09-09T06:52:36.963Z,14.55
2022-09-09T06:53:36.952Z,14.60
2022-09-09T06:54:36.954Z,14.69
2022-09-09T06:55:36.969Z,14.62
2022-09-09T06:56:36.957Z,14.57
2022-09-09T06:57:37.854Z,14.58
2022-09-09T06:58:37.012Z,14.62
2022-09-09T06:59:36.886Z,14.55
2022-09-09T07:00:36.980Z,14.58
2022-09-09T07:01:37.000Z,14.61
2022-09-09T07:02:36.900Z,14.61
2022-09-09T07:03:36.850Z,14.52
2022-09-09T07:04:36.843Z,14.46
2022-09-09T07:05:36.825Z,14.52
2022-09-09T07:06:36.823Z,14.58
2022-09-09T07:07:36.825Z,14.52
2022-09-09T07:08:36.896Z,14.58
2022-09-09T07:09:36.852Z,14.55
2022-09-09T07:10:36.761Z,14.65
2022-09-09T07:11:36.766Z,14.69
2022-09-09T07:12:36.767Z,14.58
2022-09-09T07:13:36.782Z,14.68
2022-09-09T07:14:36.718Z,14.64
2022-09-09T07:15:36.723Z,14.62
2022-09-09T07:16:36.742Z,14.64
2022-09-09T07:17:36.717Z,14.62
2022-09-09T07:18:36.800Z,14.47
2022-09-09T07:19:36.705Z,14.50
2022-09-09T07:20:36.678Z,14.58
2022-09-09T07:21:36.640Z,14.60
2022-09-09T07:22:36.634Z,14.70
2022-09-09T07:23:36.704Z,14.64
2022-09-09T07:24:36.648Z,14.69
2022-09-09T07:25:36.644Z,14.72
2022-09-09T07:26:36.583Z,14.69
2022-09-09T07:27:36.575Z,14.68
2022-09-09T07:28:36.702Z,14.73
2022-09-09T07:29:36.614Z,14.58
2022-09-09T07:30:36.587Z,14.62
2022-09-09T07:31:36.562Z,14.70
2022-09-09T07:32:36.521Z,14.57
2022-09-09T07:33:36.653Z,14.65
2022-09-09T07:34:36.513Z,14.70
2022-09-09T07:35:36.521Z,14.55
2022-09-09T07:36:36.481Z,14.70
2022-09-09T07:37:36.524Z,14.61
2022-09-09T07:38:36.566Z,14.70
2022-09-09T07:39:36.510Z,14.70
2022-09-09T07:40:36.448Z,14.73
2022-09-09T07:41:36.454Z,14.77
2022-09-09T07:42:36.460Z,14.65
2022-09-09T07:43:36.397Z,14.77
2022-09-09T07:44:36.398Z,14.73
2022-09-09T07:45:36.392Z,14.75
2022-09-09T07:46:36.536Z,14.83
2022-09-09T07:47:36.389Z,14.86
2022-09-09T07:48:36.483Z,14.83
2022-09-09T07:49:36.432Z,14.92
2022-09-09T07:50:36.340Z,14.95
2022-09-09T07:51:36.321Z,15.01
2022-09-09T07:52:36.321Z,14.91
2022-09-09T07:53:36.376Z,14.94
2022-09-09T07:54:36.339Z,14.99
2022-09-09T07:55:36.288Z,15.13
2022-09-09T07:56:36.255Z,15.09
2022-09-09T07:57:36.254Z,15.02
2022-09-09T07:58:38.408Z,15.14
2022-09-09T07:59:36.266Z,15.11
2022-09-09T08:00:36.283Z,15.11
2022-09-09T08:01:36.230Z,15.09
2022-09-09T08:02:36.192Z,15.09
2022-09-09T08:03:36.335Z,15.23
2022-09-09T08:04:36.196Z,15.19
2022-09-09T08:05:36.199Z,15.14
2022-09-09T08:06:36.162Z,15.17
2022-09-09T08:07:36.150Z,15.17
2022-09-09T08:08:36.168Z,15.21
2022-09-09T08:09:36.134Z,15.20
2022-09-09T08:10:36.137Z,15.16
2022-09-09T08:11:39.025Z,15.21
2022-09-09T08:12:36.419Z,15.16
2022-09-09T08:13:36.221Z,15.14
2022-09-09T08:14:36.072Z,15.09
2022-09-09T08:15:36.091Z,15.06
2022-09-09T08:16:36.082Z,15.10
2022-09-09T08:17:36.019Z,15.07
2022-09-09T08:18:36.019Z,15.10
2022-09-09T08:19:36.034Z,15.03
2022-09-09T08:20:36.020Z,14.95
2022-09-09T08:21:36.009Z,14.94
2022-09-09T08:22:35.962Z,15.09
2022-09-09T08:23:36.128Z,15.06
2022-09-09T08:24:35.969Z,15.03
2022-09-09T08:25:35.941Z,15.02
2022-09-09T08:26:35.950Z,15.06
2022-09-09T08:27:35.948Z,15.01
2022-09-09T08:28:35.912Z,15.07
2022-09-09T08:29:35.913Z,14.92
2022-09-09T08:30:35.873Z,14.98
2022-09-09T08:31:36.041Z,14.94
2022-09-09T08:32:35.888Z,14.96
2022-09-09T08:33:35.983Z,14.95
2022-09-09T08:34:35.867Z,14.99
2022-09-09T08:35:35.828Z,15.09
2022-09-09T08:36:35.815Z,15.06
2022-09-09T08:37:35.834Z,15.07
2022-09-09T08:38:35.817Z,15.09
2022-09-09T08:39:35.809Z,15.09
2022-09-09T08:40:35.761Z,15.13
2022-09-09T08:41:35.791Z,15.11
2022-09-09T08:42:35.789Z,15.19
2022-09-09T08:43:35.826Z,15.31
2022-09-09T08:44:35.764Z,15.46
2022-09-09T08:45:35.707Z,15.38
2022-09-09T08:46:35.774Z,15.44
2022-09-09T08:47:35.718Z,15.49
2022-09-09T08:48:35.692Z,15.50
2022-09-09T08:49:35.702Z,15.59
2022-09-09T08:50:35.665Z,15.57
2022-09-09T08:51:35.718Z,15.60
2022-09-09T08:52:35.638Z,15.64
2022-09-09T08:53:35.647Z,15.69
2022-09-09T08:54:51.033Z,15.75
2022-09-09T08:55:36.592Z,15.76
2022-09-09T08:56:35.693Z,15.90
2022-09-09T08:57:35.578Z,15.86
2022-09-09T08:58:35.680Z,15.90
2022-09-09T08:59:35.569Z,15.90
2022-09-09T09:00:35.567Z,15.93
2022-09-09T09:01:35.637Z,16.02
2022-09-09T09:02:35.512Z,16.11
2022-09-09T09:03:35.521Z,16.12
2022-09-09T09:04:35.615Z,16.20
2022-09-09T09:05:35.502Z,16.24
2022-09-09T09:06:35.511Z,16.28
2022-09-09T09:07:35.477Z,16.33
2022-09-09T09:08:35.444Z,16.27
2022-09-09T09:09:35.472Z,16.33
2022-09-09T09:10:42.134Z,16.45
2022-09-09T09:11:36.518Z,16.49
2022-09-09T09:12:35.413Z,16.52
2022-09-09T09:13:35.393Z,16.48
2022-09-09T09:14:35.434Z,16.50
2022-09-09T09:15:35.420Z,16.63
2022-09-09T09:16:35.376Z,16.71
2022-09-09T09:17:35.371Z,16.85
2022-09-09T09:18:35.378Z,16.76
2022-09-09T09:19:35.342Z,16.97
2022-09-09T09:20:35.321Z,16.93
2022-09-09T09:21:35.338Z,17.01
2022-09-09T09:22:35.314Z,17.01
2022-09-09T09:23:35.303Z,17.06
2022-09-09T09:24:35.265Z,17.08
2022-09-09T09:25:35.271Z,17.14
2022-09-09T09:26:35.277Z,17.15
2022-09-09T09:27:35.306Z,17.18
2022-09-09T09:28:35.306Z,17.23
2022-09-09T09:29:50.540Z,17.18
2022-09-09T09:30:36.205Z,17.26
2022-09-09T09:31:35.194Z,17.26
2022-09-09T09:32:35.177Z,17.30
2022-09-09T09:33:35.185Z,17.40
2022-09-09T09:34:35.181Z,17.43
2022-09-09T09:35:40.016Z,17.41
2022-09-09T09:36:36.158Z,17.48
2022-09-09T09:37:35.186Z,17.51
2022-09-09T09:40:36.110Z,17.63
2022-09-09T09:41:35.108Z,17.56
2022-09-09T09:42:35.078Z,17.74
2022-09-09T09:43:35.193Z,17.77
2022-09-09T09:44:35.064Z,17.74
2022-09-09T09:45:35.059Z,17.77
2022-09-09T09:46:35.051Z,17.68
2022-09-09T09:47:35.023Z,17.71
2022-09-09T09:48:35.000Z,17.72
2022-09-09T09:49:35.001Z,17.82
2022-09-09T09:50:34.993Z,17.84
2022-09-09T09:51:35.000Z,17.93
2022-09-09T09:52:34.953Z,17.97
2022-09-09T09:53:35.081Z,18.00
2022-09-09T09:54:34.943Z,18.05
2022-09-09T09:55:34.923Z,18.07
2022-09-09T09:56:34.983Z,18.07
2022-09-09T09:57:34.930Z,18.17
2022-09-09T09:58:34.949Z,18.10
2022-09-09T09:59:42.101Z,18.12
2022-09-09T10:00:35.886Z,18.08
2022-09-09T10:01:34.939Z,18.23
2022-09-09T10:02:34.879Z,18.25
2022-09-09T10:03:34.837Z,18.33
2022-09-09T10:04:34.859Z,18.44
2022-09-09T10:05:36.304Z,18.47
2022-09-09T10:06:34.801Z,18.51
2022-09-09T10:07:34.816Z,18.47
2022-09-09T10:08:34.818Z,18.55
2022-09-09T10:09:34.757Z,18.55
2022-09-09T10:10:34.759Z,18.55
2022-09-09T10:11:34.745Z,18.62
2022-09-09T10:12:34.729Z,18.67
2022-09-09T10:13:34.787Z,18.67
2022-09-09T10:14:34.739Z,18.63
2022-09-09T10:15:34.763Z,18.66
2022-09-09T10:16:34.685Z,18.65
2022-09-09T10:17:34.684Z,18.65
2022-09-09T10:18:34.734Z,18.73
2022-09-09T10:19:42.610Z,18.67
2022-09-09T10:20:34.668Z,18.75
2022-09-09T10:21:34.644Z,18.72
2022-09-09T10:22:34.614Z,18.70
2022-09-09T10:23:34.601Z,18.76
2022-09-09T10:24:34.628Z,18.70
2022-09-09T10:25:34.605Z,18.70
2022-09-09T10:26:34.588Z,18.67
2022-09-09T10:27:34.575Z,18.70
2022-09-09T10:28:34.720Z,18.67
2022-09-09T10:29:34.552Z,18.70
2022-09-09T10:30:34.573Z,18.65
2022-09-09T10:31:34.537Z,18.67
2022-09-09T10:32:34.518Z,18.76
2022-09-09T10:33:34.700Z,18.67
2022-09-09T10:34:34.483Z,18.67
2022-09-09T10:35:34.483Z,18.66
2022-09-09T10:36:34.483Z,18.57
2022-09-09T10:37:34.450Z,18.58
2022-09-09T10:38:34.442Z,18.54
2022-09-09T10:39:37.796Z,18.55
2022-09-09T10:40:34.414Z,18.52
2022-09-09T10:41:34.409Z,18.52
2022-09-09T10:42:34.416Z,18.55
2022-09-09T10:43:34.430Z,18.54
2022-09-09T10:44:34.381Z,18.58
2022-09-09T10:45:34.383Z,18.50
2022-09-09T10:46:34.448Z,18.51
2022-09-09T10:47:34.347Z,18.50
2022-09-09T10:48:34.356Z,18.50
2022-09-09T10:49:34.325Z,18.47
2022-09-09T10:51:00.034Z,18.54
2022-09-09T10:51:35.411Z,18.50
2022-09-09T10:52:34.297Z,18.52
2022-09-09T10:53:34.307Z,18.52
2022-09-09T10:54:34.265Z,18.48
2022-09-09T10:55:34.258Z,18.58
2022-09-09T10:56:34.234Z,18.55
2022-09-09T10:57:34.268Z,18.60
2022-09-09T10:58:34.236Z,18.54
2022-09-09T10:59:34.229Z,18.67
2022-09-09T11:00:34.199Z,18.70
2022-09-09T11:01:34.261Z,18.67
2022-09-09T11:02:34.166Z,18.76
2022-09-09T11:03:34.227Z,18.72
2022-09-09T11:04:34.170Z,18.82
2022-09-09T11:05:34.161Z,18.82
2022-09-09T11:06:34.243Z,18.80
2022-09-09T11:07:34.137Z,18.82
2022-09-09T11:08:34.273Z,18.80
2022-09-09T11:09:34.093Z,18.76
2022-09-09T11:10:34.098Z,18.84
2022-09-09T11:11:34.108Z,18.87
2022-09-09T11:12:34.075Z,18.88
2022-09-09T11:13:34.043Z,18.88
2022-09-09T11:14:36.917Z,19.04
2022-09-09T11:15:34.028Z,19.04
2022-09-09T11:16:34.096Z,19.02
2022-09-09T11:17:34.056Z,18.99
2022-09-09T11:18:34.001Z,19.04
2022-09-09T11:19:33.978Z,19.11
2022-09-09T11:20:33.982Z,19.18
2022-09-09T11:21:33.961Z,19.25
2022-09-09T11:22:34.008Z,19.31
2022-09-09T11:23:34.794Z,19.33
2022-09-09T11:24:33.949Z,19.37
2022-09-09T11:25:33.923Z,19.37
2022-09-09T11:26:33.899Z,19.47
2022-09-09T11:27:33.905Z,19.48
2022-09-09T11:28:34.020Z,19.58
2022-09-09T11:29:33.882Z,19.56
2022-09-09T11:30:55.015Z,19.63
2022-09-09T11:31:35.070Z,19.62
2022-09-09T11:32:33.841Z,19.59
2022-09-09T11:33:33.877Z,19.55
2022-09-09T11:34:34.477Z,19.58
2022-09-09T11:35:33.809Z,19.54
2022-09-09T11:36:33.793Z,19.47
2022-09-09T11:37:33.828Z,19.44
2022-09-09T11:38:33.790Z,19.48
2022-09-09T11:39:33.832Z,19.46
2022-09-09T11:40:33.752Z,19.44
2022-09-09T11:41:33.755Z,19.43
2022-09-09T11:42:33.723Z,19.41
2022-09-09T11:43:33.765Z,19.43
2022-09-09T11:44:33.830Z,19.50
2022-09-09T11:45:33.724Z,19.54
2022-09-09T11:46:33.742Z,19.51
2022-09-09T11:47:33.687Z,19.51
2022-09-09T11:48:33.712Z,19.50
2022-09-09T11:49:33.664Z,19.47
2022-09-09T11:50:33.663Z,19.55
2022-09-09T11:51:33.672Z,19.48
2022-09-09T11:52:33.620Z,19.46
2022-09-09T11:53:33.600Z,19.51
2022-09-09T11:54:33.591Z,19.56
2022-09-09T11:55:33.595Z,19.48
2022-09-09T11:56:33.586Z,19.61
2022-09-09T11:57:33.560Z,19.55
2022-09-09T11:58:33.554Z,19.59
2022-09-09T11:59:33.536Z,19.73
2022-09-09T12:00:33.569Z,19.74
2022-09-09T12:01:33.532Z,19.74
2022-09-09T12:02:33.616Z,19.73
2022-09-09T12:03:33.499Z,19.95
2022-09-09T12:04:33.555Z,19.84
2022-09-09T12:05:33.484Z,19.87
2022-09-09T12:06:33.471Z,19.91
2022-09-09T12:07:33.447Z,19.88
2022-09-09T12:08:33.504Z,19.87
2022-09-09T12:09:33.439Z,19.87
2022-09-09T12:10:33.433Z,19.86
2022-09-09T12:11:33.401Z,19.91
2022-09-09T12:12:33.392Z,19.98
2022-09-09T12:13:33.389Z,20.01
2022-09-09T12:14:33.381Z,20.03
2022-09-09T12:15:33.376Z,20.11
2022-09-09T12:16:33.395Z,20.18
2022-09-09T12:17:33.334Z,20.20
2022-09-09T12:18:33.431Z,20.29
2022-09-09T12:19:33.344Z,20.21
2022-09-09T12:20:33.331Z,20.26
2022-09-09T12:21:33.308Z,20.26
2022-09-09T12:22:33.283Z,20.13
2022-09-09T12:23:33.319Z,20.18
2022-09-09T12:24:33.256Z,20.08
2022-09-09T12:25:33.273Z,20.21
2022-09-09T12:26:33.249Z,20.14
2022-09-09T12:27:33.252Z,20.01
2022-09-09T12:28:33.213Z,20.06
2022-09-09T12:29:33.203Z,20.10
2022-09-09T12:30:33.245Z,19.91
2022-09-09T12:31:33.212Z,19.92
2022-09-09T12:32:33.187Z,19.86
2022-09-09T12:33:33.218Z,19.92
2022-09-09T12:34:33.147Z,19.95
2022-09-09T12:35:33.136Z,19.94
2022-09-09T12:36:33.146Z,19.88
2022-09-09T12:37:33.164Z,19.95
2022-09-09T12:38:33.124Z,20.01
2022-09-09T12:39:33.190Z,20.03
2022-09-09T12:40:33.097Z,20.08
2022-09-09T12:41:33.190Z,20.16
2022-09-09T12:42:33.079Z,20.26
2022-09-09T12:43:33.109Z,20.33
2022-09-09T12:44:33.054Z,20.43
2022-09-09T12:45:33.039Z,20.47
2022-09-09T12:46:33.018Z,20.47
2022-09-09T12:47:33.029Z,20.50
2022-09-09T12:48:33.042Z,20.52
2022-09-09T12:49:32.996Z,20.57
2022-09-09T12:50:32.986Z,20.66
2022-09-09T12:51:33.013Z,20.59
2022-09-09T12:52:32.949Z,20.82
2022-09-09T12:53:32.959Z,20.92
2022-09-09T12:54:32.959Z,20.98